createdAt,value
2023-04-15T00:01:49.252Z,5.03
2023-04-15T00:04:16.532Z,5.82
2023-04-15T00:06:43.608Z,5.82
2023-04-15T00:09:10.492Z,5.85
2023-04-15T00:11:37.488Z,6.53
2023-04-15T00:14:04.590Z,5.57
2023-04-15T00:16:31.639Z,5.45
2023-04-15T00:18:59.192Z,6.35
2023-04-15T00:21:30.454Z,5.57
2023-04-15T00:23:57.637Z,5.68
2023-04-15T00:26:24.560Z,5.78
2023-04-15T00:28:51.812Z,5.90
2023-04-15T00:31:18.982Z,5.93
2023-04-15T00:33:45.921Z,6.05
2023-04-15T00:36:12.880Z,6.35
2023-04-15T00:38:39.824Z,6.85
2023-04-15T00:41:07.720Z,7.00
2023-04-15T00:43:34.890Z,6.85
2023-04-15T00:46:04.107Z,7.05
2023-04-15T00:48:32.777Z,8.18
2023-04-15T00:50:59.769Z,7.03
2023-04-15T00:53:27.768Z,6.72
2023-04-15T00:55:55.141Z,6.82
2023-04-15T00:58:22.644Z,6.72
2023-04-15T01:00:49.630Z,6.55
2023-04-15T01:03:16.767Z,7.05
2023-04-15T01:05:43.727Z,7.80
2023-04-15T01:08:10.705Z,6.68
2023-04-15T01:10:37.975Z,7.28
2023-04-15T01:13:05.049Z,7.22
2023-04-15T01:15:32.500Z,6.85
2023-04-15T01:17:59.958Z,6.35
2023-04-15T01:20:27.611Z,6.50
2023-04-15T01:22:55.730Z,6.70
2023-04-15T01:25:33.549Z,6.57
2023-04-15T01:28:01.119Z,6.32
2023-04-15T01:30:28.241Z,6.30
2023-04-15T01:32:55.612Z,7.00
2023-04-15T01:35:24.225Z,7.43
2023-04-15T01:37:51.418Z,6.65
2023-04-15T01:40:18.641Z,6.95
2023-04-15T01:42:45.862Z,6.90
2023-04-15T01:45:15.995Z,8.95
2023-04-15T01:47:43.007Z,9.05
2023-04-15T01:50:10.716Z,9.85
2023-04-15T01:52:37.739Z,9.20
2023-04-15T01:55:06.440Z,9.10
2023-04-15T01:57:33.729Z,8.18
2023-04-15T02:00:01.073Z,8.85
2023-04-15T02:02:28.168Z,8.82
2023-04-15T02:04:55.782Z,8.60
2023-04-15T02:07:23.267Z,7.82
2023-04-15T02:09:50.294Z,7.68
2023-04-15T02:12:19.096Z,7.65
2023-04-15T02:14:47.345Z,7.60
2023-04-15T02:17:17.420Z,7.72
2023-04-15T02:19:44.522Z,8.10
2023-04-15T02:22:18.966Z,8.15
2023-04-15T02:24:46.922Z,8.75
2023-04-15T02:27:18.313Z,8.20
2023-04-15T02:29:46.136Z,9.00
2023-04-15T02:32:16.463Z,9.02
2023-04-15T02:34:43.556Z,9.65
2023-04-15T02:37:11.391Z,8.75
2023-04-15T02:39:38.966Z,9.32
2023-04-15T02:42:09.137Z,8.90
2023-04-15T02:44:36.878Z,9.45
2023-04-15T02:47:06.075Z,9.75
2023-04-15T02:49:33.940Z,9.93
2023-04-15T02:52:01.045Z,9.85
2023-04-15T02:54:31.128Z,10.43
2023-04-15T02:56:58.183Z,10.82
2023-04-15T02:59:25.527Z,10.52
2023-04-15T03:01:52.743Z,11.40
2023-04-15T03:04:20.391Z,10.30
2023-04-15T03:06:47.847Z,11.60
2023-04-15T03:09:14.748Z,11.25
2023-04-15T03:11:42.321Z,12.15
2023-04-15T03:14:09.488Z,12.63
2023-04-15T03:16:36.507Z,12.13
2023-04-15T03:19:03.750Z,12.88
2023-04-15T03:21:30.999Z,12.35
2023-04-15T03:23:57.961Z,12.27
2023-04-15T03:26:31.934Z,12.65
2023-04-15T03:28:59.574Z,12.82
2023-04-15T03:31:27.153Z,13.65
2023-04-15T03:33:54.254Z,13.15
2023-04-15T03:36:21.289Z,12.93
2023-04-15T03:38:49.476Z,13.20
2023-04-15T03:41:16.429Z,14.30
2023-04-15T03:43:43.565Z,13.75
2023-04-15T03:46:19.358Z,14.05
2023-04-15T03:48:47.096Z,14.88
2023-04-15T03:51:14.176Z,14.88
2023-04-15T03:53:41.222Z,13.40
2023-04-15T03:56:08.281Z,14.50
2023-04-15T03:58:35.259Z,14.50
2023-04-15T04:01:02.277Z,15.35
2023-04-15T04:03:29.408Z,15.48
2023-04-15T04:05:56.711Z,17.08
2023-04-15T04:08:23.674Z,16.35
2023-04-15T04:10:50.828Z,15.95
2023-04-15T04:13:17.723Z,16.98
2023-04-15T04:15:44.716Z,17.25
2023-04-15T04:18:11.845Z,16.05
2023-04-15T04:20:38.843Z,17.25
2023-04-15T04:23:06.195Z,17.75
2023-04-15T04:25:33.234Z,16.65
2023-04-15T04:28:00.267Z,16.83
2023-04-15T04:30:27.367Z,17.42
2023-04-15T04:32:54.416Z,16.80
2023-04-15T04:35:22.308Z,17.83
2023-04-15T04:37:49.221Z,19.05
2023-04-15T04:40:16.309Z,18.50
2023-04-15T04:42:43.356Z,18.60
2023-04-15T04:45:10.556Z,18.42
2023-04-15T04:47:37.473Z,19.33
2023-04-15T04:50:04.810Z,18.27
2023-04-15T04:52:32.343Z,19.75
2023-04-15T04:54:59.272Z,18.88
2023-04-15T04:57:26.673Z,18.95
2023-04-15T04:59:53.905Z,19.40
2023-04-15T05:02:21.656Z,19.20
2023-04-15T05:04:50.146Z,20.05
2023-04-15T05:07:17.131Z,19.52
2023-04-15T05:09:44.208Z,19.10
2023-04-15T05:12:15.054Z,20.67
2023-04-15T05:14:42.527Z,19.42
2023-04-15T05:17:09.613Z,19.95
2023-04-15T05:19:36.606Z,21.08
2023-04-15T05:22:03.746Z,20.25
2023-04-15T05:24:30.927Z,21.48
2023-04-15T05:26:58.125Z,21.30
2023-04-15T05:29:25.207Z,21.80
2023-04-15T05:31:52.476Z,21.73
2023-04-15T05:34:20.048Z,21.20
2023-04-15T05:36:46.983Z,21.52
2023-04-15T05:39:14.014Z,21.08
2023-04-15T05:41:41.300Z,20.52
2023-04-15T05:44:08.269Z,20.20
2023-04-15T05:46:35.283Z,21.83
2023-04-15T05:49:02.896Z,20.27
2023-04-15T05:51:30.201Z,19.90
2023-04-15T05:53:57.204Z,22.30
2023-04-15T05:56:24.947Z,20.63
2023-04-15T05:58:53.746Z,20.92
2023-04-15T06:01:20.978Z,22.20
2023-04-15T06:03:48.968Z,22.55
2023-04-15T06:06:16.014Z,22.05
2023-04-15T06:08:42.978Z,22.50
2023-04-15T06:11:10.146Z,23.23
2023-04-15T06:13:37.189Z,22.45
2023-04-15T06:16:04.506Z,23.00
2023-04-15T06:18:31.524Z,22.35
2023-04-15T06:20:58.590Z,22.90
2023-04-15T06:23:26.940Z,21.77
2023-04-15T06:25:55.034Z,22.08
2023-04-15T06:28:21.996Z,22.02
2023-04-15T06:30:49.072Z,23.23
2023-04-15T06:33:16.107Z,23.33
2023-04-15T06:35:43.280Z,24.15
2023-04-15T06:38:10.609Z,24.42
2023-04-15T06:40:37.720Z,23.50
2023-04-15T06:43:05.052Z,23.75
2023-04-15T06:45:32.670Z,24.52
2023-04-15T06:47:59.869Z,24.85
2023-04-15T06:50:27.536Z,24.63
2023-04-15T06:52:56.348Z,25.40
2023-04-15T06:55:23.510Z,25.30
2023-04-15T06:57:50.571Z,25.17
2023-04-15T07:00:17.996Z,26.13
2023-04-15T07:02:45.431Z,26.02
2023-04-15T07:05:12.827Z,25.40
2023-04-15T07:07:40.006Z,25.25
2023-04-15T07:10:07.877Z,26.75
2023-04-15T07:12:36.006Z,26.40
2023-04-15T07:15:03.751Z,27.33
2023-04-15T07:17:30.881Z,27.92
2023-04-15T07:19:58.186Z,27.23
2023-04-15T07:22:26.362Z,28.58
2023-04-15T07:24:53.588Z,28.10
2023-04-15T07:27:21.155Z,28.85
2023-04-15T07:29:49.142Z,29.08
2023-04-15T07:32:16.557Z,26.67
2023-04-15T07:34:44.670Z,26.52
2023-04-15T07:37:11.693Z,27.10
2023-04-15T07:39:38.748Z,24.95
2023-04-15T07:42:05.876Z,24.30
2023-04-15T07:44:33.097Z,24.20
2023-04-15T07:47:00.087Z,24.58
2023-04-15T07:49:27.002Z,24.00
2023-04-15T07:51:54.109Z,25.02
2023-04-15T07:54:21.098Z,22.88
2023-04-15T07:56:48.202Z,23.10
2023-04-15T07:59:17.986Z,22.83
2023-04-15T08:01:45.144Z,22.55
2023-04-15T08:04:12.182Z,23.13
2023-04-15T08:06:40.103Z,21.98
2023-04-15T08:09:08.240Z,21.60
2023-04-15T08:11:36.660Z,22.42
2023-04-15T08:14:04.797Z,23.38
2023-04-15T08:16:32.137Z,23.17
2023-04-15T08:18:59.810Z,23.05
2023-04-15T08:21:27.740Z,22.90
2023-04-15T08:23:54.893Z,23.83
2023-04-15T08:26:22.237Z,24.02
2023-04-15T08:28:49.782Z,22.67
2023-04-15T08:31:18.576Z,22.30
2023-04-15T08:33:46.946Z,23.48
2023-04-15T08:36:14.280Z,22.33
2023-04-15T08:38:41.557Z,24.77
2023-04-15T08:41:23.949Z,22.40
2023-04-15T08:44:04.407Z,22.92
2023-04-15T08:46:35.057Z,23.25
2023-04-15T08:49:05.105Z,22.30
2023-04-15T08:51:34.042Z,21.95
2023-04-15T08:54:02.672Z,21.67
2023-04-15T08:56:33.304Z,20.13
2023-04-15T08:59:00.858Z,20.90
2023-04-15T09:01:28.795Z,21.88
2023-04-15T09:03:57.969Z,20.25
2023-04-15T09:06:27.226Z,21.45
2023-04-15T09:08:55.280Z,21.08
2023-04-15T09:11:23.127Z,20.38
2023-04-15T09:13:50.638Z,20.55
2023-04-15T09:16:17.635Z,20.08
2023-04-15T09:18:44.827Z,19.13
2023-04-15T09:21:16.783Z,18.05
2023-04-15T09:24:05.049Z,18.85
2023-04-15T09:26:37.468Z,19.05
2023-04-15T09:29:11.577Z,17.02
2023-04-15T09:31:39.278Z,16.67
2023-04-15T09:34:07.155Z,17.70
2023-04-15T09:36:56.657Z,17.77
2023-04-15T09:39:24.214Z,17.50
2023-04-15T09:42:08.649Z,17.95
2023-04-15T09:44:37.284Z,17.38
2023-04-15T09:47:04.692Z,18.30
2023-04-15T09:49:32.342Z,16.92
2023-04-15T09:52:05.651Z,16.98
2023-04-15T09:54:36.859Z,16.15
2023-04-15T09:57:12.237Z,17.35
2023-04-15T09:59:40.728Z,16.83
2023-04-15T10:02:09.262Z,16.73
2023-04-15T10:04:41.532Z,17.75
2023-04-15T10:07:10.097Z,15.82
2023-04-15T10:09:40.557Z,16.52
2023-04-15T10:12:09.031Z,17.67
2023-04-15T10:14:38.880Z,16.85
2023-04-15T10:17:07.937Z,17.27
2023-04-15T10:19:38.458Z,16.77
2023-04-15T10:22:06.684Z,16.67
2023-04-15T10:24:34.024Z,17.00
2023-04-15T10:27:02.500Z,17.30
2023-04-15T10:29:29.862Z,16.52
2023-04-15T10:31:57.660Z,16.52
2023-04-15T10:34:25.818Z,15.20
2023-04-15T10:36:57.940Z,15.85
2023-04-15T10:39:34.919Z,16.25
2023-04-15T10:42:13.446Z,15.50
2023-04-15T10:44:43.819Z,16.02
2023-04-15T10:47:14.408Z,15.25
2023-04-15T10:49:59.860Z,14.43
2023-04-15T10:52:29.330Z,14.60
2023-04-15T10:55:25.287Z,14.38
2023-04-15T11:00:25.282Z,14.00
2023-04-15T11:02:58.292Z,13.52
2023-04-15T11:05:52.178Z,13.70
2023-04-15T11:08:20.323Z,14.00
2023-04-15T11:10:47.880Z,14.38
2023-04-15T11:13:22.657Z,14.25
2023-04-15T11:15:50.864Z,14.15
2023-04-15T11:18:30.949Z,14.35
2023-04-15T11:21:07.038Z,13.35
2023-04-15T11:23:47.030Z,14.10
2023-04-15T11:26:15.286Z,18.13
2023-04-15T11:28:47.919Z,16.58
2023-04-15T11:31:20.295Z,14.60
2023-04-15T11:33:55.713Z,15.20
2023-04-15T11:36:27.657Z,16.40
2023-04-15T11:38:55.929Z,15.30
2023-04-15T11:41:24.454Z,15.60
2023-04-15T11:43:52.662Z,15.30
2023-04-15T11:46:21.836Z,14.55
2023-04-15T11:48:49.371Z,15.30
2023-04-15T11:51:16.920Z,17.42
2023-04-15T11:53:47.665Z,16.85
2023-04-15T11:56:26.038Z,16.85
2023-04-15T11:58:58.600Z,16.23
2023-04-15T12:01:47.859Z,16.80
2023-04-15T12:04:20.807Z,16.50
2023-04-15T12:06:50.341Z,17.08
2023-04-15T12:09:17.586Z,17.02
2023-04-15T12:11:53.941Z,16.00
2023-04-15T12:14:29.629Z,16.42
2023-04-15T12:17:05.473Z,16.83
2023-04-15T12:19:37.646Z,15.85
2023-04-15T12:22:06.772Z,19.45
2023-04-15T12:24:36.250Z,17.98
2023-04-15T12:27:08.654Z,17.35
2023-04-15T12:29:37.590Z,17.55
2023-04-15T12:32:11.207Z,17.10
2023-04-15T12:34:43.561Z,17.77
2023-04-15T12:37:12.428Z,18.35
2023-04-15T12:39:42.186Z,18.30
2023-04-15T12:42:10.429Z,18.33
2023-04-15T12:44:38.452Z,17.75
2023-04-15T12:47:06.931Z,19.25
2023-04-15T12:49:34.692Z,19.05
2023-04-15T12:52:02.950Z,20.08
2023-04-15T12:54:31.536Z,19.55
2023-04-15T12:56:59.337Z,20.40
2023-04-15T12:59:26.728Z,19.17
2023-04-15T13:01:54.464Z,20.75
2023-04-15T13:04:22.432Z,19.50
2023-04-15T13:06:50.493Z,19.75
2023-04-15T13:09:17.923Z,20.33
2023-04-15T13:11:45.786Z,23.08
2023-04-15T13:14:13.440Z,26.88
2023-04-15T13:16:41.197Z,25.48
2023-04-15T13:19:08.574Z,24.00
2023-04-15T13:21:36.521Z,24.33
2023-04-15T13:24:05.253Z,23.55
2023-04-15T13:26:33.442Z,23.48
2023-04-15T13:29:01.115Z,25.55
2023-04-15T13:31:28.421Z,24.83
2023-04-15T13:33:56.733Z,26.02
2023-04-15T13:36:24.265Z,25.92
2023-04-15T13:38:51.709Z,28.85
2023-04-15T13:41:20.210Z,28.52
2023-04-15T13:43:47.450Z,33.08
2023-04-15T13:46:14.923Z,36.30
2023-04-15T13:48:42.199Z,32.13
2023-04-15T13:51:09.374Z,34.80
2023-04-15T13:53:39.027Z,31.88
2023-04-15T13:56:08.114Z,31.95
2023-04-15T13:58:35.724Z,33.83
2023-04-15T14:01:05.854Z,35.10
2023-04-15T14:03:34.986Z,35.85
2023-04-15T14:06:02.197Z,36.00
2023-04-15T14:08:31.344Z,37.42
2023-04-15T14:10:58.729Z,38.95
2023-04-15T14:13:26.033Z,39.92
2023-04-15T14:15:53.260Z,38.92
2023-04-15T14:18:20.685Z,39.33
2023-04-15T14:20:48.627Z,39.78
2023-04-15T14:23:15.920Z,37.80
2023-04-15T14:25:46.078Z,40.67
2023-04-15T14:28:15.206Z,41.58
2023-04-15T14:30:42.608Z,44.08
2023-04-15T14:33:10.095Z,42.58
2023-04-15T14:35:37.094Z,43.75
2023-04-15T14:38:06.056Z,43.60
2023-04-15T14:40:34.389Z,44.00
2023-04-15T14:43:04.236Z,45.25
2023-04-15T14:45:31.889Z,46.72
2023-04-15T14:48:00.395Z,44.20
2023-04-15T14:50:27.803Z,42.65
2023-04-15T14:52:54.731Z,43.78
2023-04-15T14:55:21.946Z,44.17
2023-04-15T14:57:49.344Z,43.28
2023-04-15T15:00:16.755Z,47.08
2023-04-15T15:02:44.046Z,45.53
2023-04-15T15:05:12.451Z,47.33
2023-04-15T15:07:43.405Z,46.78
2023-04-15T15:10:10.780Z,44.67
2023-04-15T15:12:38.096Z,43.85
2023-04-15T15:15:15.628Z,43.33
2023-04-15T15:17:52.760Z,40.38
2023-04-15T15:20:20.222Z,40.65
2023-04-15T15:22:47.686Z,42.25
2023-04-15T15:25:15.317Z,41.90
2023-04-15T15:27:43.366Z,40.05
2023-04-15T15:30:11.376Z,39.78
2023-04-15T15:32:43.017Z,40.25
2023-04-15T15:35:11.825Z,39.42
2023-04-15T15:37:39.270Z,38.58
2023-04-15T15:40:07.884Z,38.42
2023-04-15T15:42:36.211Z,37.47
2023-04-15T15:45:04.977Z,37.05
2023-04-15T15:47:32.619Z,36.53
2023-04-15T15:50:03.036Z,37.50
2023-04-15T15:52:31.995Z,36.35
2023-04-15T15:54:59.313Z,36.58
2023-04-15T15:57:26.786Z,37.25
2023-04-15T16:00:04.709Z,37.55
2023-04-15T16:03:04.400Z,37.85
2023-04-15T16:05:25.442Z,37.13
2023-04-15T16:07:52.653Z,38.78
2023-04-15T16:10:19.776Z,38.40
2023-04-15T16:12:47.034Z,42.72
2023-04-15T16:15:15.237Z,39.72
2023-04-15T16:17:42.292Z,40.90
2023-04-15T16:20:09.914Z,40.05
2023-04-15T16:22:37.376Z,39.17
2023-04-15T16:25:04.837Z,38.17
2023-04-15T16:27:32.228Z,40.33
2023-04-15T16:29:59.446Z,42.78
2023-04-15T16:32:26.739Z,42.50
2023-04-15T16:34:53.950Z,38.95
2023-04-15T16:37:21.804Z,39.65
2023-04-15T16:39:49.088Z,37.40
2023-04-15T16:42:16.481Z,39.25
2023-04-15T16:44:43.567Z,37.75
2023-04-15T16:47:12.033Z,37.15
2023-04-15T16:49:39.307Z,36.83
2023-04-15T16:52:06.519Z,37.85
2023-04-15T16:54:35.123Z,35.28
2023-04-15T16:57:02.739Z,36.90
2023-04-15T16:59:29.783Z,35.47
2023-04-15T17:01:56.896Z,35.47
2023-04-15T17:04:24.080Z,35.08
2023-04-15T17:06:51.537Z,33.35
2023-04-15T17:09:18.582Z,32.70
2023-04-15T17:11:46.143Z,33.15
2023-04-15T17:14:13.307Z,35.03
2023-04-15T17:16:42.074Z,34.42
2023-04-15T17:19:09.600Z,34.13
2023-04-15T17:21:36.975Z,36.08
2023-04-15T17:24:04.538Z,37.22
2023-04-15T17:26:32.049Z,38.28
2023-04-15T17:28:59.291Z,38.03
2023-04-15T17:31:26.665Z,36.47
2023-04-15T17:34:01.777Z,36.05
2023-04-15T17:36:37.275Z,35.70
2023-04-15T17:39:04.810Z,38.47
2023-04-15T17:41:32.316Z,37.10
2023-04-15T17:43:59.630Z,38.65
2023-04-15T17:46:28.012Z,38.67
2023-04-15T17:48:57.609Z,41.35
2023-04-15T17:51:29.082Z,40.47
2023-04-15T17:53:56.885Z,41.35
2023-04-15T17:56:26.052Z,41.42
2023-04-15T17:58:55.200Z,41.65
2023-04-15T18:01:23.093Z,43.95
2023-04-15T18:03:50.649Z,42.97
2023-04-15T18:06:18.002Z,44.38
2023-04-15T18:08:45.769Z,44.38
2023-04-15T18:11:13.658Z,42.97
2023-04-15T18:13:42.077Z,44.67
2023-04-15T18:16:11.818Z,44.70
2023-04-15T18:18:39.280Z,43.70
2023-04-15T18:21:07.127Z,46.53
2023-04-15T18:23:35.807Z,44.83
2023-04-15T18:26:03.890Z,44.88
2023-04-15T18:28:34.134Z,47.38
2023-04-15T18:31:02.427Z,46.13
2023-04-15T18:33:30.160Z,47.17
2023-04-15T18:35:59.678Z,48.33
2023-04-15T18:38:27.364Z,48.20
2023-04-15T18:40:55.931Z,48.90
2023-04-15T18:43:24.065Z,50.10
2023-04-15T18:45:54.995Z,52.45
2023-04-15T18:48:22.393Z,51.15
2023-04-15T18:50:54.123Z,52.38
2023-04-15T18:53:21.846Z,52.40
2023-04-15T18:55:49.413Z,53.83
2023-04-15T18:58:16.646Z,52.20
2023-04-15T19:00:43.966Z,55.25
2023-04-15T19:03:12.038Z,54.53
2023-04-15T19:05:40.291Z,54.08
2023-04-15T19:08:08.070Z,53.42
2023-04-15T19:10:35.960Z,54.33
2023-04-15T19:13:04.491Z,55.65
2023-04-15T19:15:32.619Z,57.83
2023-04-15T19:18:00.274Z,57.42
2023-04-15T19:20:28.065Z,59.17
2023-04-15T19:22:56.329Z,55.90
2023-04-15T19:25:25.030Z,56.25
2023-04-15T19:27:53.750Z,55.70
2023-04-15T19:30:22.709Z,54.75
2023-04-15T19:32:51.817Z,56.92
2023-04-15T19:35:19.425Z,54.85
2023-04-15T19:37:49.446Z,56.65
2023-04-15T19:40:17.831Z,56.58
2023-04-15T19:42:45.891Z,56.08
2023-04-15T19:45:13.450Z,57.67
2023-04-15T19:47:41.028Z,57.40
2023-04-15T19:50:10.180Z,57.03
2023-04-15T19:52:38.041Z,56.00
2023-04-15T19:55:06.080Z,57.30
2023-04-15T19:57:35.114Z,57.72
2023-04-15T20:00:02.678Z,56.40
2023-04-15T20:02:30.388Z,58.90
2023-04-15T20:04:59.092Z,56.60
2023-04-15T20:07:26.295Z,59.03
2023-04-15T20:09:53.942Z,59.20
2023-04-15T20:12:50.206Z,57.75
2023-04-15T20:15:10.238Z,58.33
2023-04-15T20:17:38.425Z,58.13
2023-04-15T20:20:07.328Z,58.72
2023-04-15T20:22:35.226Z,58.42
2023-04-15T20:25:03.233Z,57.08
2023-04-15T20:27:30.143Z,58.20
2023-04-15T20:29:57.381Z,57.38
2023-04-15T20:32:24.572Z,57.42
2023-04-15T20:34:51.833Z,55.85
2023-04-15T20:37:18.958Z,54.13
2023-04-15T20:39:45.990Z,57.88
2023-04-15T20:42:13.111Z,54.63
2023-04-15T20:44:40.802Z,54.67
2023-04-15T20:47:08.256Z,55.78
2023-04-15T20:49:36.505Z,52.47
2023-04-15T20:52:04.708Z,52.05
2023-04-15T20:54:31.779Z,50.92
2023-04-15T20:56:59.053Z,51.55
2023-04-15T20:59:26.397Z,54.40
2023-04-15T21:01:54.263Z,52.70
2023-04-15T21:04:22.279Z,52.00
2023-04-15T21:06:49.423Z,52.88
2023-04-15T21:09:16.699Z,51.70
2023-04-15T21:12:00.288Z,53.53
2023-04-15T21:14:28.617Z,38.27
2023-04-15T21:16:57.218Z,52.65
2023-04-15T21:19:24.241Z,54.30
2023-04-15T21:21:51.392Z,54.67
2023-04-15T21:24:18.315Z,55.10
2023-04-15T21:26:45.470Z,54.80
2023-04-15T21:29:12.702Z,57.03
2023-04-15T21:31:40.772Z,56.53
2023-04-15T21:34:08.516Z,53.85
2023-04-15T21:36:36.106Z,53.95
2023-04-15T21:39:03.770Z,55.03
2023-04-15T21:41:31.606Z,53.20
2023-04-15T21:43:59.076Z,55.42
2023-04-15T21:46:32.678Z,55.25
2023-04-15T21:49:00.786Z,40.33
2023-04-15T21:51:28.461Z,53.55
2023-04-15T21:53:56.191Z,54.90
2023-04-15T21:56:24.521Z,51.88
2023-04-15T21:58:54.470Z,53.13
2023-04-15T22:01:21.861Z,54.83
2023-04-15T22:03:49.637Z,54.42
2023-04-15T22:06:17.327Z,54.13
2023-04-15T22:08:55.417Z,54.67
2023-04-15T22:11:27.958Z,54.00
2023-04-15T22:13:57.075Z,52.15
2023-04-15T22:16:26.221Z,52.97
2023-04-15T22:18:53.638Z,53.55
2023-04-15T22:21:21.097Z,52.58
2023-04-15T22:23:49.000Z,53.55
2023-04-15T22:26:16.230Z,55.13
2023-04-15T22:28:43.665Z,54.03
2023-04-15T22:31:11.412Z,53.50
2023-04-15T22:33:40.378Z,54.97
2023-04-15T22:36:07.455Z,55.17
2023-04-15T22:38:34.617Z,53.40
2023-04-15T22:41:01.863Z,52.85
2023-04-15T22:43:28.949Z,52.45
2023-04-15T22:45:57.013Z,55.15
2023-04-15T22:48:24.072Z,53.97
2023-04-15T22:50:51.413Z,51.17
2023-04-15T22:53:18.637Z,52.78
2023-04-15T22:55:48.842Z,52.30
2023-04-15T22:58:17.372Z,52.30
2023-04-15T23:00:45.324Z,51.10
2023-04-15T23:03:12.975Z,50.85
2023-04-15T23:05:41.505Z,53.70
2023-04-15T23:08:09.223Z,51.00
2023-04-15T23:10:36.499Z,53.88
2023-04-15T23:13:03.765Z,51.40
2023-04-15T23:15:30.958Z,52.85
2023-04-15T23:17:58.294Z,51.72
2023-04-15T23:20:25.865Z,49.33
2023-04-15T23:22:53.069Z,50.60
2023-04-15T23:25:22.508Z,49.42
2023-04-15T23:27:49.919Z,48.95
2023-04-15T23:30:17.496Z,47.15
2023-04-15T23:32:44.807Z,46.40
2023-04-15T23:35:12.312Z,48.60
2023-04-15T23:37:39.707Z,46.15
2023-04-15T23:40:07.399Z,45.92
2023-04-15T23:42:34.373Z,43.17
2023-04-15T23:45:01.499Z,45.17
2023-04-15T23:47:28.521Z,45.45
2023-04-15T23:49:55.561Z,46.40
2023-04-15T23:52:22.843Z,44.47
2023-04-15T23:54:49.881Z,45.45
2023-04-15T23:57:16.997Z,46.70
2023-04-15T23:59:44.036Z,47.30
